Time;durP1;ratioP1;P1;durP2;ratioP2;P2;SDS_P1;SDS_P2;PMS_P1;PMS_P2;Temp;Humidity;BMP_temperature;BMP_pressure;BME280_temperature;BME280_humidity;BME280_pressure;Samples;Min_cycle;Max_cycle;Signal;HPM_P1;HPM_P2
2022/11/25 05:00:36;;;;;;;16.70;11.70;;;4.50;99.90;;;;;;5882527;23;20540;-64
2022/11/25 05:03:02;;;;;;;16.33;11.83;;;4.40;99.90;;;;;;4976752;28;20451;-63
2022/11/25 05:05:29;;;;;;;13.10;11.23;;;4.40;99.90;;;;;;4976141;28;20914;-63
2022/11/25 05:07:56;;;;;;;12.87;11.57;;;4.40;99.90;;;;;;4979232;28;20455;-63
2022/11/25 05:10:23;;;;;;;14.00;11.50;;;4.40;99.90;;;;;;4984380;28;20451;-63
2022/11/25 05:12:50;;;;;;;16.30;12.67;;;4.40;99.90;;;;;;4980250;28;20794;-64
2022/11/25 05:15:17;;;;;;;25.03;13.40;;;4.30;99.90;;;;;;4976010;28;20860;-64
2022/11/25 05:17:45;;;;;;;14.80;13.20;;;4.30;99.90;;;;;;4975210;28;20458;-64
2022/11/25 05:20:12;;;;;;;17.73;13.13;;;4.30;99.90;;;;;;4977454;28;20533;-63
2022/11/25 05:22:39;;;;;;;18.20;13.57;;;4.30;99.90;;;;;;4977459;28;20463;-64
2022/11/25 05:25:06;;;;;;;15.10;13.50;;;4.30;99.90;;;;;;4975720;28;20849;-63
2022/11/25 05:27:32;;;;;;;15.40;12.70;;;4.30;99.90;;;;;;4975360;28;20459;-63
2022/11/25 05:29:59;;;;;;;15.43;13.63;;;4.30;99.90;;;;;;4975727;28;20451;-64
2022/11/25 05:32:26;;;;;;;18.23;14.30;;;4.20;99.90;;;;;;4976824;28;20510;-64
2022/11/25 05:34:54;;;;;;;18.27;13.90;;;4.20;99.90;;;;;;4975573;28;20455;-63
2022/11/25 05:37:22;;;;;;;16.33;13.47;;;4.20;99.90;;;;;;4975444;28;20640;-64
2022/11/25 05:39:48;;;;;;;15.57;13.50;;;4.20;99.90;;;;;;4975029;28;20884;-64
2022/11/25 05:42:15;;;;;;;20.17;13.87;;;4.20;99.90;;;;;;4976185;28;20474;-63
2022/11/25 05:44:41;;;;;;;18.60;13.97;;;4.20;99.90;;;;;;4979362;28;20505;-63
2022/11/25 05:47:09;;;;;;;16.90;14.40;;;4.20;99.90;;;;;;4978698;28;20969;-63
2022/11/25 05:49:35;;;;;;;18.00;14.63;;;4.20;99.90;;;;;;4978561;28;20945;-63
2022/11/25 05:52:03;;;;;;;16.57;13.80;;;4.20;99.90;;;;;;4982637;28;20527;-62
2022/11/25 05:54:30;;;;;;;18.07;13.50;;;4.20;99.90;;;;;;4979918;28;20469;-63
2022/11/25 05:56:57;;;;;;;17.13;14.03;;;4.10;99.90;;;;;;4978478;28;20454;-63
2022/11/25 05:59:23;;;;;;;16.37;14.50;;;4.10;99.90;;;;;;4978688;28;20478;-63
2022/11/25 06:01:53;;;;;;;18.30;14.60;;;4.10;99.90;;;;;;4978235;28;20537;-64
2022/11/25 06:04:19;;;;;;;16.67;14.70;;;4.10;99.90;;;;;;4978383;28;20454;-64
2022/11/25 06:06:47;;;;;;;19.30;14.53;;;4.10;99.90;;;;;;4978311;28;20455;-64
2022/11/25 06:09:15;;;;;;;16.40;13.90;;;4.10;99.90;;;;;;4978232;28;20461;-63
2022/11/25 06:11:41;;;;;;;15.90;12.80;;;4.20;99.90;;;;;;4978732;28;20514;-63
2022/11/25 06:14:08;;;;;;;17.13;13.83;;;4.20;99.90;;;;;;4978423;28;20505;-63
2022/11/25 06:16:35;;;;;;;17.67;14.50;;;4.20;99.90;;;;;;4978371;28;20885;-63
2022/11/25 06:19:04;;;;;;;18.53;12.90;;;4.20;99.90;;;;;;4977990;28;20455;-63
2022/11/25 06:21:31;;;;;;;20.10;13.43;;;4.20;99.90;;;;;;4978416;28;20478;-63
2022/11/25 06:23:57;;;;;;;15.83;12.03;;;4.20;99.90;;;;;;4978550;28;20463;-64
2022/11/25 06:26:25;;;;;;;16.30;12.50;;;4.20;99.90;;;;;;4978233;28;20458;-64
2022/11/25 06:28:54;;;;;;;17.10;12.17;;;4.20;99.90;;;;;;4977934;28;20458;-64
2022/11/25 06:31:23;;;;;;;16.90;12.10;;;4.20;99.90;;;;;;4977518;28;20475;-63
2022/11/25 06:33:51;;;;;;;13.60;11.50;;;4.20;99.90;;;;;;4978231;28;20458;-64
2022/11/25 06:36:19;;;;;;;16.17;12.70;;;4.20;99.90;;;;;;4978096;28;20801;-63
2022/11/25 06:38:49;;;;;;;14.97;13.30;;;4.20;99.90;;;;;;4978901;28;20509;-63
2022/11/25 06:41:16;;;;;;;17.50;12.07;;;4.10;99.90;;;;;;4978216;28;21004;-62
2022/11/25 06:43:44;;;;;;;14.23;12.83;;;4.10;99.90;;;;;;4977654;28;20484;-62
2022/11/25 06:46:13;;;;;;;16.13;12.87;;;4.10;99.90;;;;;;4978558;28;20513;-62
2022/11/25 06:48:40;;;;;;;19.60;13.27;;;4.10;99.90;;;;;;4978004;28;20490;-62
2022/11/25 06:51:09;;;;;;;15.93;13.93;;;4.00;99.90;;;;;;4977982;28;20529;-62
2022/11/25 06:53:36;;;;;;;18.93;14.13;;;4.00;99.90;;;;;;4977239;28;20459;-63
2022/11/25 06:56:10;;;;;;;17.27;13.90;;;3.90;99.90;;;;;;4977673;28;20863;-63
2022/11/25 06:58:38;;;;;;;17.10;13.67;;;3.90;99.90;;;;;;4977720;28;20443;-62
2022/11/25 07:01:08;;;;;;;16.50;12.93;;;3.90;99.90;;;;;;4977521;28;20490;-64
2022/11/25 07:03:35;;;;;;;18.37;13.27;;;3.90;99.90;;;;;;4978305;28;20463;-63
2022/11/25 07:06:02;;;;;;;18.80;14.93;;;4.00;99.90;;;;;;4977729;28;21025;-63
2022/11/25 07:08:30;;;;;;;16.63;12.50;;;4.00;99.90;;;;;;4977230;28;20454;-62
2022/11/25 07:11:01;;;;;;;17.97;14.13;;;4.00;99.90;;;;;;4977704;28;20475;-63
2022/11/25 07:13:28;;;;;;;21.80;14.07;;;4.10;99.90;;;;;;4978185;28;20497;-63
2022/11/25 07:15:55;;;;;;;17.60;13.23;;;4.20;99.90;;;;;;4977578;28;20463;-63
2022/11/25 07:18:23;;;;;;;14.63;12.97;;;4.20;99.90;;;;;;4977139;28;20941;-64
2022/11/25 07:20:50;;;;;;;15.07;13.23;;;4.20;99.90;;;;;;4978169;28;20490;-63
2022/11/25 07:23:16;;;;;;;16.37;13.30;;;4.20;99.90;;;;;;4980626;28;20490;-63
2022/11/25 07:25:43;;;;;;;16.43;12.73;;;4.30;99.90;;;;;;4981736;28;20509;-65
2022/11/25 07:28:10;;;;;;;16.80;11.80;;;4.30;99.90;;;;;;4977480;28;20866;-64
2022/11/25 07:30:36;;;;;;;20.43;13.03;;;4.40;99.90;;;;;;4977136;28;20508;-63
2022/11/25 07:33:06;;;;;;;14.77;12.37;;;4.60;99.90;;;;;;4977202;28;20455;-63
2022/11/25 07:35:35;;;;;;;13.97;10.63;;;4.80;99.90;;;;;;4977065;28;20542;-64
2022/11/25 07:38:01;;;;;;;11.20;9.47;;;5.20;99.90;;;;;;4977060;28;20459;-63
2022/11/25 07:40:28;;;;;;;14.73;10.53;;;5.60;99.90;;;;;;4976942;28;20994;-63
2022/11/25 07:42:55;;;;;;;12.43;8.93;;;5.80;99.90;;;;;;4977941;28;20451;-64
2022/11/25 07:45:23;;;;;;;15.70;10.57;;;5.80;99.90;;;;;;4976890;28;20525;-63
2022/11/25 07:47:49;;;;;;;12.63;10.23;;;5.80;99.90;;;;;;4976877;28;20550;-63
2022/11/25 07:50:16;;;;;;;13.93;10.80;;;5.90;99.90;;;;;;4976915;28;20456;-64
2022/11/25 07:52:44;;;;;;;14.80;10.97;;;5.90;99.90;;;;;;4976747;28;21016;-64
2022/11/25 07:55:11;;;;;;;15.73;10.50;;;5.90;99.90;;;;;;4977202;28;20458;-62
2022/11/25 07:57:38;;;;;;;12.70;9.90;;;5.90;99.90;;;;;;4976908;28;20486;-63
2022/11/25 08:00:06;;;;;;;13.20;9.70;;;5.80;99.90;;;;;;4976516;28;20571;-63
2022/11/25 08:02:32;;;;;;;13.30;10.63;;;5.80;99.90;;;;;;4976689;28;20483;-63
2022/11/25 08:04:59;;;;;;;11.77;10.20;;;5.80;99.90;;;;;;4975809;28;20459;-62
2022/11/25 08:07:26;;;;;;;11.57;10.40;;;5.70;99.90;;;;;;4976206;28;20439;-63
2022/11/25 08:09:54;;;;;;;11.77;10.57;;;5.70;99.90;;;;;;4976200;28;20454;-63
2022/11/25 08:12:21;;;;;;;11.00;9.80;;;5.70;99.90;;;;;;4976196;28;20523;-63
2022/11/25 08:14:47;;;;;;;16.37;10.20;;;5.70;99.90;;;;;;4976477;28;20466;-63
2022/11/25 08:17:14;;;;;;;15.77;11.10;;;5.70;99.90;;;;;;4976196;28;20486;-63
2022/11/25 08:19:41;;;;;;;14.67;12.00;;;5.70;99.90;;;;;;4976068;28;20478;-63
2022/11/25 08:22:07;;;;;;;18.70;12.40;;;5.70;99.90;;;;;;4976201;28;20474;-62
2022/11/25 08:24:34;;;;;;;12.60;10.80;;;5.80;99.90;;;;;;4976277;28;20454;-63
2022/11/25 08:27:02;;;;;;;15.57;10.53;;;5.90;99.90;;;;;;4976204;28;20459;-62
2022/11/25 08:29:29;;;;;;;19.27;12.13;;;5.90;99.90;;;;;;4976241;28;20553;-62
2022/11/25 08:31:57;;;;;;;15.10;10.90;;;6.00;99.90;;;;;;4976033;28;20534;-64
2022/11/25 08:34:24;;;;;;;12.60;10.63;;;6.00;99.90;;;;;;4976116;28;20517;-63
2022/11/25 08:36:51;;;;;;;12.87;11.57;;;6.00;99.90;;;;;;4975853;28;20865;-63
2022/11/25 08:39:19;;;;;;;21.27;11.67;;;6.00;99.90;;;;;;4976469;28;20458;-62
2022/11/25 08:41:46;;;;;;;18.13;12.37;;;6.00;99.90;;;;;;4976536;28;20510;-62
2022/11/25 08:44:14;;;;;;;13.97;10.63;;;6.00;99.90;;;;;;4976645;28;20517;-63
2022/11/25 08:46:42;;;;;;;14.40;11.20;;;5.90;99.90;;;;;;4976176;28;20953;-65
2022/11/25 08:49:09;;;;;;;12.37;10.17;;;5.80;99.90;;;;;;4978090;28;20459;-65
2022/11/25 08:51:41;;;;;;;11.00;9.90;;;5.80;99.90;;;;;;4979978;28;20484;-63
2022/11/25 08:54:09;;;;;;;13.97;11.37;;;5.90;99.90;;;;;;4979803;28;21012;-63
2022/11/25 08:56:36;;;;;;;13.43;10.57;;;6.00;99.90;;;;;;4980272;28;20809;-65
2022/11/25 08:59:02;;;;;;;12.30;10.63;;;6.00;99.90;;;;;;4977509;28;20455;-65
2022/11/25 09:01:31;;;;;;;11.37;10.17;;;6.10;99.90;;;;;;4975997;28;20492;-65
2022/11/25 09:04:00;;;;;;;14.47;10.97;;;6.20;99.90;;;;;;4976714;28;20505;-63
2022/11/25 09:06:28;;;;;;;15.53;11.00;;;6.30;99.90;;;;;;4976880;28;20526;-63
2022/11/25 09:08:57;;;;;;;12.27;10.57;;;6.40;99.90;;;;;;4975290;28;20946;-65
2022/11/25 09:11:25;;;;;;;13.20;10.23;;;6.40;99.90;;;;;;4975020;28;20513;-65
2022/11/25 09:13:52;;;;;;;13.30;10.37;;;6.50;99.90;;;;;;4975256;28;20467;-65
2022/11/25 09:16:19;;;;;;;12.43;9.80;;;6.70;99.90;;;;;;4975009;28;20463;-63
2022/11/25 09:18:47;;;;;;;12.33;8.93;;;6.90;99.90;;;;;;4975608;28;20461;-63
2022/11/25 09:21:16;;;;;;;13.23;9.23;;;7.20;99.90;;;;;;4975104;28;20490;-63
2022/11/25 09:23:43;;;;;;;12.40;9.50;;;7.60;99.90;;;;;;4974990;28;20455;-63
2022/11/25 09:26:20;;;;;;;10.57;9.47;;;7.90;99.90;;;;;;4974965;28;20549;-63
2022/11/25 09:28:47;;;;;;;8.77;7.30;;;8.50;99.90;;;;;;4974605;28;20533;-63
2022/11/25 09:31:14;;;;;;;13.07;8.23;;;9.10;99.90;;;;;;4974730;28;20526;-63
2022/11/25 09:33:40;;;;;;;10.90;8.80;;;9.60;99.90;;;;;;4974503;28;20999;-63
2022/11/25 09:36:11;;;;;;;14.20;7.77;;;9.80;99.90;;;;;;4974650;28;20938;-65
2022/11/25 09:38:37;;;;;;;9.70;8.00;;;9.90;99.90;;;;;;4974827;28;20446;-65
2022/11/25 09:41:10;;;;;;;8.53;7.50;;;10.00;99.90;;;;;;4975307;28;20853;-63
2022/11/25 09:46:55;;;;;;;9.70;8.53;;;9.60;99.90;;;;;;4940840;28;20542;-62
2022/11/25 09:49:38;;;;;;;11.80;7.87;;;9.50;99.90;;;;;;4975505;28;20438;-64
2022/11/25 09:52:16;;;;;;;10.83;8.40;;;9.30;99.90;;;;;;4974859;28;20471;-64
2022/11/25 09:54:48;;;;;;;9.00;7.80;;;9.20;99.90;;;;;;4974714;28;20438;-65
2022/11/25 09:57:27;;;;;;;8.97;8.07;;;9.10;99.90;;;;;;4974924;28;20522;-64
2022/11/25 10:00:03;;;;;;;9.90;8.73;;;9.00;99.90;;;;;;4974689;28;20485;-64
2022/11/25 10:02:38;;;;;;;8.60;7.70;;;8.90;99.90;;;;;;4975233;28;20490;-62
2022/11/25 10:05:09;;;;;;;7.73;7.00;;;8.90;99.90;;;;;;4975838;28;20439;-62
2022/11/25 10:07:42;;;;;;;8.00;7.20;;;8.90;99.90;;;;;;4976563;28;20459;-63
2022/11/25 10:10:22;;;;;;;9.40;6.70;;;9.00;99.90;;;;;;4975640;28;20443;-65
2022/11/25 10:12:50;;;;;;;7.57;6.83;;;9.10;99.90;;;;;;4975285;28;20537;-62
2022/11/25 10:15:23;;;;;;;8.07;6.83;;;9.20;99.90;;;;;;4976381;28;20549;-66
2022/11/25 10:17:52;;;;;;;10.93;6.70;;;9.30;99.90;;;;;;4974868;28;20470;-65
2022/11/25 10:20:22;;;;;;;6.60;5.90;;;9.40;99.90;;;;;;4974302;28;20537;-64
2022/11/25 10:22:53;;;;;;;8.73;6.73;;;9.40;99.90;;;;;;4975188;28;20451;-66
2022/11/25 10:25:23;;;;;;;7.53;6.73;;;9.50;99.90;;;;;;4975431;28;20435;-63
2022/11/25 10:27:56;;;;;;;8.50;6.00;;;9.50;99.90;;;;;;4975366;28;20451;-65
2022/11/25 10:30:24;;;;;;;8.47;6.57;;;9.50;99.90;;;;;;4977492;28;20447;-62
2022/11/25 10:32:54;;;;;;;8.80;6.80;;;9.60;99.90;;;;;;4978232;28;20459;-64
2022/11/25 10:35:28;;;;;;;9.77;6.47;;;9.50;99.90;;;;;;4979631;28;20458;-66
2022/11/25 10:37:59;;;;;;;12.30;7.20;;;9.50;99.90;;;;;;4980853;28;20435;-66
2022/11/25 10:40:25;;;;;;;10.80;6.33;;;9.40;99.90;;;;;;4977890;28;20470;-66
2022/11/25 10:42:52;;;;;;;10.83;6.33;;;9.40;99.90;;;;;;4977871;28;20462;-66
2022/11/25 10:45:22;;;;;;;7.80;5.90;;;9.40;99.90;;;;;;4978371;28;20450;-66
2022/11/25 10:48:14;;;;;;;9.03;6.50;;;9.40;99.90;;;;;;4978360;28;20459;-65
2022/11/25 10:50:55;;;;;;;7.77;5.93;;;9.40;99.90;;;;;;4977339;28;20510;-65
2022/11/25 10:53:25;;;;;;;8.70;6.97;;;9.40;99.90;;;;;;4977617;28;20905;-67
2022/11/25 10:56:02;;;;;;;9.90;6.60;;;9.40;99.90;;;;;;4977756;28;20461;-67
2022/11/25 10:58:34;;;;;;;9.53;7.30;;;9.40;99.90;;;;;;4977567;28;20486;-66
2022/11/25 11:01:14;;;;;;;9.50;6.63;;;9.50;99.90;;;;;;4977153;28;20495;-63
2022/11/25 11:03:42;;;;;;;8.80;6.80;;;9.40;99.90;;;;;;4977264;28;20471;-63
2022/11/25 11:06:30;;;;;;;15.30;7.53;;;9.40;99.90;;;;;;4977346;28;20455;-63
2022/11/25 11:08:58;;;;;;;10.00;7.07;;;9.50;99.90;;;;;;4977796;28;20530;-63
2022/11/25 11:11:25;;;;;;;13.07;7.00;;;9.40;99.90;;;;;;4977027;28;20882;-64
2022/11/25 11:13:59;;;;;;;10.37;6.77;;;9.40;99.90;;;;;;4977204;28;20462;-64
2022/11/25 11:16:33;;;;;;;7.67;6.20;;;9.40;99.90;;;;;;4977145;28;20805;-64
2022/11/25 11:19:00;;;;;;;9.00;5.90;;;9.50;99.90;;;;;;4976916;28;20871;-63
2022/11/25 11:21:31;;;;;;;8.10;5.50;;;9.50;99.90;;;;;;4976914;28;20485;-63
2022/11/25 11:23:59;;;;;;;6.90;5.37;;;9.60;99.90;;;;;;4976829;28;20455;-63
2022/11/25 11:26:28;;;;;;;9.90;5.80;;;9.60;99.90;;;;;;4976859;28;20459;-63
2022/11/25 11:29:01;;;;;;;8.97;5.63;;;9.60;99.90;;;;;;4976809;28;20458;-63
2022/11/25 11:31:32;;;;;;;10.93;5.60;;;9.60;99.90;;;;;;4976746;28;20521;-63
2022/11/25 11:34:08;;;;;;;10.53;6.43;;;9.70;99.90;;;;;;4976504;28;20490;-64
2022/11/25 11:36:49;;;;;;;7.07;6.37;;;9.70;99.90;;;;;;4976367;28;20435;-63
2022/11/25 11:39:29;;;;;;;9.13;6.23;;;9.70;99.90;;;;;;4976100;28;20447;-64
2022/11/25 11:42:03;;;;;;;8.13;5.40;;;9.70;99.90;;;;;;4976325;28;20486;-64
2022/11/25 11:44:40;;;;;;;7.00;6.27;;;9.70;99.90;;;;;;4976106;28;20882;-63
2022/11/25 11:47:15;;;;;;;8.13;6.13;;;9.70;99.90;;;;;;4975985;28;20438;-63
2022/11/25 11:49:59;;;;;;;10.00;6.27;;;9.70;99.90;;;;;;4976405;28;20536;-64
2022/11/25 11:52:37;;;;;;;9.37;6.47;;;9.70;99.90;;;;;;4976261;28;20478;-63
2022/11/25 11:55:23;;;;;;;13.03;6.30;;;9.70;99.90;;;;;;4976382;28;20450;-63
2022/11/25 11:57:58;;;;;;;10.07;6.00;;;9.70;99.90;;;;;;4976456;28;20435;-63
2022/11/25 12:00:27;;;;;;;8.07;6.40;;;9.70;99.90;;;;;;4976109;28;20442;-64
2022/11/25 12:02:59;;;;;;;8.17;6.57;;;9.70;99.90;;;;;;4976047;28;20854;-64
2022/11/25 12:05:29;;;;;;;11.20;5.30;;;9.80;99.90;;;;;;4976229;28;20467;-63
2022/11/25 12:08:06;;;;;;;7.60;6.27;;;9.80;99.90;;;;;;4976074;28;20431;-64
2022/11/25 12:10:38;;;;;;;10.30;5.50;;;9.80;99.90;;;;;;4978059;28;20435;-64
2022/11/25 12:13:14;;;;;;;7.27;5.40;;;9.80;99.90;;;;;;4976180;28;20510;-63
2022/11/25 12:15:46;;;;;;;6.00;5.10;;;9.80;99.90;;;;;;4976644;28;20434;-64
2022/11/25 12:18:21;;;;;;;5.53;4.50;;;9.80;99.90;;;;;;4977472;28;20478;-63
2022/11/25 12:20:55;;;;;;;4.63;4.23;;;9.80;99.90;;;;;;4975680;28;20477;-64
2022/11/25 12:23:30;;;;;;;6.03;3.80;;;9.80;99.90;;;;;;4975898;28;20442;-64
2022/11/25 12:26:05;;;;;;;5.43;4.00;;;9.70;99.90;;;;;;4975587;28;20445;-63
2022/11/25 12:28:37;;;;;;;9.70;5.73;;;9.70;99.90;;;;;;4975555;28;20450;-63
2022/11/25 12:31:12;;;;;;;5.40;4.90;;;9.70;99.90;;;;;;4975483;28;20478;-63
2022/11/25 12:33:46;;;;;;;6.23;5.20;;;9.60;99.90;;;;;;4975274;28;20529;-63
2022/11/25 12:36:18;;;;;;;6.10;3.73;;;9.50;99.90;;;;;;4975493;28;20438;-63
2022/11/25 12:38:47;;;;;;;6.10;3.80;;;9.50;99.90;;;;;;4975506;28;20446;-63
2022/11/25 12:41:23;;;;;;;5.40;3.97;;;9.50;99.90;;;;;;4975202;28;20486;-64
2022/11/25 12:43:55;;;;;;;6.73;4.17;;;9.50;99.90;;;;;;4975648;28;20442;-63
2022/11/25 12:46:29;;;;;;;8.10;5.47;;;9.50;99.90;;;;;;4975950;28;20443;-65
2022/11/25 12:48:58;;;;;;;7.20;6.37;;;9.50;99.90;;;;;;4975045;28;20905;-66
2022/11/25 12:51:37;;;;;;;7.03;4.73;;;9.50;99.90;;;;;;4974440;28;20809;-66
2022/11/25 12:54:18;;;;;;;6.37;5.30;;;9.40;99.90;;;;;;4975146;28;20449;-66
2022/11/25 12:57:17;;;;;;;8.37;4.70;;;9.40;99.90;;;;;;4975248;28;20478;-66
2022/11/25 13:00:00;;;;;;;8.80;5.83;;;9.40;99.90;;;;;;4975097;28;20509;-66
2022/11/25 13:02:46;;;;;;;6.63;5.83;;;9.30;99.90;;;;;;4974722;28;20905;-66
2022/11/25 13:05:41;;;;;;;12.40;5.73;;;9.30;99.90;;;;;;4975022;28;20439;-65
2022/11/25 13:08:18;;;;;;;8.40;5.17;;;9.30;99.90;;;;;;4974997;28;20458;-65
2022/11/25 13:10:58;;;;;;;8.00;4.50;;;9.30;99.90;;;;;;4975059;28;20541;-65
2022/11/25 13:13:37;;;;;;;7.57;5.20;;;9.40;99.90;;;;;;4975309;28;20447;-66
2022/11/25 13:16:06;;;;;;;8.93;5.40;;;9.40;99.90;;;;;;4974836;28;20790;-67
2022/11/25 13:18:37;;;;;;;11.03;5.57;;;9.50;99.90;;;;;;4975017;28;20457;-66
2022/11/25 13:21:09;;;;;;;6.73;4.53;;;9.50;99.90;;;;;;4974456;28;20474;-66
2022/11/25 13:23:47;;;;;;;7.83;5.03;;;9.60;99.90;;;;;;4975017;28;20855;-66
2022/11/25 13:26:49;;;;;;;7.50;4.90;;;9.70;99.90;;;;;;4975846;28;20765;-66
2022/11/25 13:30:01;;;;;;;9.00;5.50;;;9.70;99.90;;;;;;4975025;28;20442;-66
2022/11/25 13:32:31;;;;;;;8.30;6.10;;;9.80;99.90;;;;;;4975019;28;20529;-66
2022/11/25 13:35:34;;;;;;;6.90;5.27;;;9.90;99.90;;;;;;4974882;28;20450;-66
2022/11/25 13:38:00;;;;;;;7.40;4.43;;;9.90;99.90;;;;;;4970660;28;20457;-67
2022/11/25 13:40:37;;;;;;;11.77;6.40;;;9.90;99.90;;;;;;4974494;28;20454;-66
2022/11/25 13:43:04;;;;;;;11.33;8.70;;;9.90;99.90;;;;;;4977373;28;20466;-66
2022/11/25 13:45:34;;;;;;;19.37;11.50;;;10.00;99.90;;;;;;4974773;28;20454;-66
2022/11/25 13:48:13;;;;;;;21.23;14.97;;;9.90;99.90;;;;;;4974914;28;20498;-66
2022/11/25 13:50:39;;;;;;;18.20;15.50;;;9.90;99.90;;;;;;4974555;28;20474;-66
2022/11/25 13:53:17;;;;;;;15.03;11.50;;;9.90;99.90;;;;;;4975525;28;20455;-66
2022/11/25 13:55:45;;;;;;;8.87;8.00;;;9.90;99.90;;;;;;4974798;28;20442;-66
2022/11/25 13:58:22;;;;;;;9.73;6.67;;;10.00;99.90;;;;;;4974780;28;20458;-66
2022/11/25 14:01:21;;;;;;;9.13;6.63;;;10.00;99.90;;;;;;4974928;28;20492;-66
2022/11/25 14:03:54;;;;;;;9.90;5.93;;;10.10;99.90;;;;;;4976416;28;20946;-66
2022/11/25 14:06:39;;;;;;;9.63;5.70;;;10.10;99.90;;;;;;4978561;28;20443;-66
2022/11/25 14:09:14;;;;;;;9.27;5.20;;;10.20;99.90;;;;;;4978233;28;20456;-66
2022/11/25 14:11:58;;;;;;;8.57;5.30;;;10.20;99.90;;;;;;4978240;28;20473;-66
2022/11/25 14:15:02;;;;;;;6.03;4.63;;;10.20;99.90;;;;;;4978361;28;20458;-66
2022/11/25 14:17:58;;;;;;;8.07;4.20;;;10.30;99.90;;;;;;4881214;29;20451;-66
2022/11/25 14:20:41;;;;;;;7.20;4.43;;;10.30;99.90;;;;;;4977980;28;20449;-66
2022/11/25 14:23:31;;;;;;;9.27;4.13;;;10.30;99.90;;;;;;4977951;28;20466;-66
2022/11/25 14:26:05;;;;;;;8.27;3.87;;;10.30;99.90;;;;;;4978058;28;20466;-65
2022/11/25 14:28:39;;;;;;;12.00;4.63;;;10.50;99.90;;;;;;4978220;28;20474;-65
2022/11/25 14:31:10;;;;;;;7.70;4.10;;;10.70;99.90;;;;;;4977745;28;20478;-65
2022/11/25 14:33:48;;;;;;;10.70;5.47;;;11.00;99.90;;;;;;4977562;28;20913;-65
2022/11/25 14:36:21;;;;;;;8.77;3.93;;;11.30;99.90;;;;;;4977951;28;20501;-65
2022/11/25 14:38:53;;;;;;;4.53;3.47;;;11.50;99.90;;;;;;4977766;28;20447;-65
2022/11/25 14:41:25;;;;;;;5.63;3.33;;;11.60;99.90;;;;;;4977667;28;20898;-66
2022/11/25 14:43:57;;;;;;;5.67;2.53;;;11.60;99.90;;;;;;4977755;28;20442;-65
2022/11/25 14:46:25;;;;;;;7.03;3.67;;;11.70;99.90;;;;;;4977818;28;20732;-63
2022/11/25 14:48:56;;;;;;;7.40;2.77;;;11.60;99.90;;;;;;4977523;28;20545;-63
2022/11/25 14:51:25;;;;;;;7.13;3.20;;;11.60;99.90;;;;;;4977283;28;20478;-63
2022/11/25 14:53:52;;;;;;;8.17;3.37;;;11.40;99.90;;;;;;4977111;28;20954;-64
2022/11/25 14:56:25;;;;;;;6.83;3.80;;;11.30;99.90;;;;;;4978287;28;20459;-64
2022/11/25 14:58:54;;;;;;;7.33;3.30;;;11.30;99.90;;;;;;4977390;28;20438;-64
2022/11/25 15:01:23;;;;;;;6.20;3.47;;;11.10;99.90;;;;;;4976901;28;20569;-63
2022/11/25 15:04:00;;;;;;;7.30;3.67;;;11.10;99.90;;;;;;4977202;28;20455;-64
2022/11/25 15:06:33;;;;;;;7.40;2.70;;;11.00;99.90;;;;;;4977189;28;20501;-63
2022/11/25 15:09:00;;;;;;;5.77;3.10;;;10.90;99.90;;;;;;4977502;28;20443;-63
2022/11/25 15:11:31;;;;;;;7.83;3.40;;;10.80;99.90;;;;;;4977593;28;20478;-64
2022/11/25 15:14:01;;;;;;;5.43;3.50;;;10.70;99.90;;;;;;4976974;28;20502;-63
2022/11/25 15:16:33;;;;;;;6.27;2.97;;;10.70;99.90;;;;;;4977195;28;20459;-63
2022/11/25 15:19:02;;;;;;;14.40;4.17;;;10.60;99.90;;;;;;4976865;28;20455;-64
2022/11/25 15:21:33;;;;;;;7.53;3.17;;;10.60;99.90;;;;;;4977090;28;21024;-63
2022/11/25 15:24:00;;;;;;;7.53;3.53;;;10.50;99.90;;;;;;4977143;28;20443;-63
2022/11/25 15:26:29;;;;;;;11.10;4.57;;;10.50;99.90;;;;;;4976746;28;20459;-63
2022/11/25 15:28:57;;;;;;;10.00;4.80;;;10.50;99.90;;;;;;4976720;28;20496;-63
2022/11/25 15:31:28;;;;;;;7.37;3.90;;;10.50;99.90;;;;;;4976836;28;20474;-63
2022/11/25 15:33:58;;;;;;;8.13;4.13;;;10.40;99.90;;;;;;4976958;28;20443;-63
2022/11/25 15:36:26;;;;;;;8.80;4.40;;;10.40;99.90;;;;;;4977448;28;20462;-63
2022/11/25 15:38:54;;;;;;;14.70;4.23;;;10.30;99.90;;;;;;4976753;28;20443;-63
2022/11/25 15:41:32;;;;;;;8.00;3.80;;;10.30;99.90;;;;;;4976184;28;20529;-63
2022/11/25 15:44:02;;;;;;;10.10;3.93;;;10.20;99.90;;;;;;4976136;28;20857;-63
2022/11/25 15:46:31;;;;;;;9.83;3.50;;;10.20;99.90;;;;;;4976202;28;20461;-64
2022/11/25 15:48:59;;;;;;;7.00;3.70;;;10.10;99.90;;;;;;4976787;28;20798;-63
2022/11/25 15:51:35;;;;;;;5.47;3.20;;;10.10;99.90;;;;;;4976329;28;20475;-64
2022/11/25 15:54:06;;;;;;;7.80;3.40;;;10.00;99.90;;;;;;4976476;28;20442;-64
2022/11/25 15:56:37;;;;;;;8.37;4.07;;;10.00;99.90;;;;;;4976823;28;20490;-66
2022/11/25 15:59:04;;;;;;;5.03;3.70;;;9.90;99.90;;;;;;4976234;28;20438;-66
2022/11/25 16:01:31;;;;;;;11.67;4.10;;;9.90;99.90;;;;;;4975942;28;20824;-66
2022/11/25 16:04:17;;;;;;;19.87;13.37;;;9.90;99.90;;;;;;4976217;28;20647;-65
2022/11/25 16:06:53;;;;;;;23.57;14.60;;;9.90;99.90;;;;;;4976420;28;20443;-66
2022/11/25 16:09:24;;;;;;;9.03;7.30;;;9.90;99.90;;;;;;4976132;28;20477;-66
2022/11/25 16:11:51;;;;;;;11.63;8.10;;;9.80;99.90;;;;;;4975909;28;20513;-66
2022/11/25 16:14:18;;;;;;;12.70;7.27;;;9.80;99.90;;;;;;4976139;28;20454;-66
2022/11/25 16:16:46;;;;;;;14.73;5.60;;;9.80;99.90;;;;;;4975913;28;20462;-66
2022/11/25 16:19:17;;;;;;;9.10;4.10;;;9.70;99.90;;;;;;4975719;28;20942;-66
2022/11/25 16:21:52;;;;;;;7.33;3.43;;;9.70;99.90;;;;;;4975966;28;21056;-65
2022/11/25 16:24:32;;;;;;;7.83;4.00;;;9.70;99.90;;;;;;4975618;28;20521;-65
2022/11/25 16:27:01;;;;;;;5.70;3.80;;;9.60;99.90;;;;;;4975579;28;20517;-66
2022/11/25 16:29:31;;;;;;;7.33;3.73;;;9.60;99.90;;;;;;4975422;28;20776;-66
2022/11/25 16:31:58;;;;;;;6.40;3.90;;;9.60;99.90;;;;;;4975234;28;21007;-66
2022/11/25 16:34:25;;;;;;;7.80;4.00;;;9.60;99.90;;;;;;4975733;28;20439;-65
2022/11/25 16:36:52;;;;;;;17.13;5.20;;;9.60;99.90;;;;;;4975684;28;20435;-66
2022/11/25 16:39:19;;;;;;;9.63;4.30;;;9.60;99.90;;;;;;4975237;28;20942;-66
2022/11/25 16:41:56;;;;;;;9.73;4.90;;;9.60;99.90;;;;;;4975553;28;20553;-67
2022/11/25 16:44:24;;;;;;;13.57;5.93;;;9.60;99.90;;;;;;4976860;28;20441;-66
2022/11/25 16:46:52;;;;;;;9.90;5.50;;;9.60;99.90;;;;;;4975817;28;20846;-66
2022/11/25 16:49:19;;;;;;;12.70;5.60;;;9.60;99.90;;;;;;4976217;28;20454;-67
2022/11/25 16:51:49;;;;;;;13.50;5.93;;;9.60;99.90;;;;;;4975426;28;20526;-66
2022/11/25 16:54:16;;;;;;;7.60;4.70;;;9.60;99.90;;;;;;4975362;28;20450;-67
2022/11/25 16:56:43;;;;;;;9.10;4.77;;;9.60;99.90;;;;;;4987370;28;20466;-66
2022/11/25 16:59:16;;;;;;;13.83;8.03;;;9.60;99.90;;;;;;4987767;28;20454;-67
2022/11/25 17:01:43;;;;;;;12.47;8.17;;;9.60;99.90;;;;;;4986084;28;20866;-66
2022/11/25 17:04:12;;;;;;;13.30;6.60;;;9.60;99.90;;;;;;4980625;28;20603;-67
2022/11/25 17:06:40;;;;;;;10.37;6.50;;;9.60;99.90;;;;;;4976405;28;20455;-68
2022/11/25 17:09:07;;;;;;;15.20;9.60;;;9.60;99.90;;;;;;4975502;28;20942;-67
2022/11/25 17:11:37;;;;;;;15.87;8.73;;;9.60;99.90;;;;;;4975234;28;20486;-67
2022/11/25 17:14:06;;;;;;;14.20;10.40;;;9.60;99.90;;;;;;4975292;28;20446;-68
2022/11/25 17:16:42;;;;;;;12.03;8.63;;;9.50;99.90;;;;;;4975091;28;20467;-66
2022/11/25 17:19:14;;;;;;;17.07;11.30;;;9.50;99.90;;;;;;4975740;28;20439;-66
2022/11/25 17:21:40;;;;;;;8.70;6.00;;;9.50;99.90;;;;;;4974789;28;20494;-66
2022/11/25 17:24:14;;;;;;;11.23;6.17;;;9.50;99.90;;;;;;4974998;28;20470;-66
2022/11/25 17:26:42;;;;;;;10.70;5.87;;;9.40;99.90;;;;;;4974956;28;20447;-66
2022/11/25 17:29:14;;;;;;;11.63;7.00;;;9.40;99.90;;;;;;4975035;28;20942;-66
2022/11/25 17:31:43;;;;;;;10.83;6.13;;;9.40;99.90;;;;;;4974902;28;20479;-66
2022/11/25 17:34:14;;;;;;;11.60;5.47;;;9.40;99.90;;;;;;4975611;28;20509;-65
2022/11/25 17:36:41;;;;;;;9.03;5.10;;;9.40;99.90;;;;;;4975380;28;20450;-66
2022/11/25 17:39:09;;;;;;;10.03;6.37;;;9.40;99.90;;;;;;4977679;28;20946;-65
2022/11/25 17:41:41;;;;;;;8.87;6.73;;;9.40;99.90;;;;;;4979528;28;20498;-66
2022/11/25 17:44:17;;;;;;;10.57;6.23;;;9.40;99.90;;;;;;4979263;28;20463;-65
2022/11/25 17:46:46;;;;;;;11.00;5.53;;;9.40;99.90;;;;;;4979168;28;20442;-65
2022/11/25 17:49:14;;;;;;;10.20;6.90;;;9.40;99.90;;;;;;4978982;28;20459;-66
2022/11/25 17:51:41;;;;;;;13.97;9.87;;;9.30;99.90;;;;;;4979251;28;20478;-66
2022/11/25 17:54:08;;;;;;;19.97;10.67;;;9.30;99.90;;;;;;4979072;28;20450;-64
2022/11/25 17:56:35;;;;;;;17.10;11.37;;;9.30;99.90;;;;;;4978258;28;20458;-64
2022/11/25 17:59:05;;;;;;;14.70;9.17;;;9.30;99.90;;;;;;4978575;28;20505;-65
2022/11/25 18:01:32;;;;;;;13.67;8.70;;;9.30;99.90;;;;;;4978190;28;20540;-65
2022/11/25 18:04:07;;;;;;;11.47;7.43;;;9.30;99.90;;;;;;4978417;28;20462;-66
2022/11/25 18:06:34;;;;;;;11.70;8.03;;;9.40;99.90;;;;;;4978382;28;20427;-63
2022/11/25 18:09:01;;;;;;;10.73;6.23;;;9.30;99.90;;;;;;4978252;28;20478;-65